createdAt,value
2022-08-20T00:01:10.003Z,1.80
2022-08-20T00:03:39.712Z,1.90
2022-08-20T00:06:20.228Z,2.55
2022-08-20T00:08:47.277Z,2.28
2022-08-20T00:11:18.079Z,1.83
2022-08-20T00:13:49.191Z,2.28
2022-08-20T00:16:18.458Z,1.98
2022-08-20T00:18:45.704Z,2.00
2022-08-20T00:21:18.748Z,2.05
2022-08-20T00:23:50.147Z,1.98
2022-08-20T00:26:18.225Z,1.92
2022-08-20T00:28:45.624Z,2.17
2022-08-20T00:31:14.556Z,2.00
2022-08-20T00:33:41.105Z,2.50
2022-08-20T00:36:12.143Z,2.10
2022-08-20T00:38:41.006Z,1.98
2022-08-20T00:41:12.441Z,2.40
2022-08-20T00:43:48.783Z,2.30
2022-08-20T00:46:22.616Z,2.03
2022-08-20T00:48:58.613Z,2.50
2022-08-20T00:51:48.345Z,2.10
2022-08-20T00:54:22.362Z,2.42
2022-08-20T00:57:13.235Z,2.50
2022-08-20T00:59:42.348Z,2.60
2022-08-20T01:02:13.613Z,2.78
2022-08-20T01:04:40.996Z,2.42
2022-08-20T01:07:07.806Z,2.78
2022-08-20T01:09:57.506Z,2.72
2022-08-20T01:12:25.122Z,2.67
2022-08-20T01:14:52.429Z,2.55
2022-08-20T01:17:24.351Z,2.55
2022-08-20T01:20:23.234Z,3.03
2022-08-20T01:23:26.679Z,2.70
2022-08-20T01:25:55.964Z,2.70
2022-08-20T01:28:31.446Z,2.28
2022-08-20T01:30:58.101Z,2.80
2022-08-20T01:33:25.088Z,3.53
2022-08-20T01:35:53.340Z,3.28
2022-08-20T01:38:21.084Z,3.20
2022-08-20T01:41:05.649Z,2.70
2022-08-20T01:43:37.019Z,2.63
2022-08-20T01:46:04.666Z,4.57
2022-08-20T01:48:31.593Z,3.70
2022-08-20T01:51:08.768Z,3.88
2022-08-20T01:53:39.013Z,3.10
2022-08-20T01:56:09.225Z,4.00
2022-08-20T01:58:39.791Z,3.30
2022-08-20T02:01:06.580Z,3.33
2022-08-20T02:03:38.851Z,3.78
2022-08-20T02:06:07.290Z,3.67
2022-08-20T02:08:34.020Z,4.07
2022-08-20T02:11:00.506Z,3.55
2022-08-20T02:13:27.313Z,4.65
2022-08-20T02:15:54.366Z,4.28
2022-08-20T02:18:22.051Z,4.85
2022-08-20T02:20:51.518Z,4.30
2022-08-20T02:23:18.741Z,4.50
2022-08-20T02:25:47.440Z,4.47
2022-08-20T02:28:17.134Z,4.72
2022-08-20T02:30:47.788Z,4.72
2022-08-20T02:33:17.154Z,5.78
2022-08-20T02:35:47.000Z,5.97
2022-08-20T02:38:15.631Z,5.97
2022-08-20T02:40:44.205Z,5.57
2022-08-20T02:43:11.057Z,6.85
2022-08-20T02:45:43.439Z,5.80
2022-08-20T02:48:21.432Z,6.00
2022-08-20T02:50:55.600Z,6.07
2022-08-20T02:53:23.026Z,7.40
2022-08-20T02:55:50.732Z,8.23
2022-08-20T02:58:18.668Z,6.97
2022-08-20T03:00:46.022Z,7.78
2022-08-20T03:03:14.510Z,7.85
2022-08-20T03:05:43.803Z,8.13
2022-08-20T03:08:14.570Z,8.68
2022-08-20T03:10:43.449Z,8.95
2022-08-20T03:13:13.950Z,7.72
2022-08-20T03:15:44.414Z,8.35
2022-08-20T03:18:11.388Z,8.25
2022-08-20T03:20:38.597Z,8.18
2022-08-20T03:23:06.324Z,8.40
2022-08-20T03:25:33.228Z,8.43
2022-08-20T03:27:59.998Z,9.05
2022-08-20T03:30:28.918Z,9.20
2022-08-20T03:32:56.065Z,7.85
2022-08-20T03:35:26.568Z,8.20
2022-08-20T03:37:53.255Z,8.10
2022-08-20T03:40:28.380Z,7.88
2022-08-20T03:42:55.128Z,8.20
2022-08-20T03:45:23.202Z,7.45
2022-08-20T03:47:51.696Z,7.80
2022-08-20T03:50:23.259Z,7.50
2022-08-20T03:52:52.245Z,6.70
2022-08-20T03:55:19.657Z,7.95
2022-08-20T03:57:49.535Z,7.63
2022-08-20T04:00:20.637Z,7.53
2022-08-20T04:02:47.492Z,7.78
2022-08-20T04:05:14.175Z,8.52
2022-08-20T04:07:41.229Z,8.13
2022-08-20T04:10:10.660Z,7.63
2022-08-20T04:12:48.781Z,8.48
2022-08-20T04:15:21.162Z,8.32
2022-08-20T04:17:50.292Z,8.68
2022-08-20T04:20:22.703Z,8.60
2022-08-20T04:22:59.311Z,9.05
2022-08-20T04:25:35.924Z,8.73
2022-08-20T04:28:05.910Z,8.88
2022-08-20T04:30:33.487Z,9.43
2022-08-20T04:33:00.735Z,9.30
2022-08-20T04:35:28.786Z,9.80
2022-08-20T04:38:09.268Z,8.65
2022-08-20T04:40:55.600Z,9.60
2022-08-20T04:43:23.915Z,8.95
2022-08-20T04:45:54.188Z,7.93
2022-08-20T04:48:23.885Z,9.00
2022-08-20T04:50:52.500Z,8.38
2022-08-20T04:53:25.914Z,9.20
2022-08-20T04:55:55.209Z,9.00
2022-08-20T04:58:28.087Z,8.65
2022-08-20T05:00:58.863Z,8.88
2022-08-20T05:03:28.764Z,7.43
2022-08-20T05:05:56.833Z,7.60
2022-08-20T05:08:25.547Z,7.25
2022-08-20T05:11:01.196Z,7.70
2022-08-20T05:13:41.300Z,7.65
2022-08-20T05:16:08.116Z,7.38
2022-08-20T05:18:35.480Z,6.38
2022-08-20T05:21:06.451Z,6.72
2022-08-20T05:23:36.460Z,7.18
2022-08-20T05:26:09.068Z,6.35
2022-08-20T05:28:52.796Z,7.20
2022-08-20T05:31:32.204Z,6.68
2022-08-20T05:34:12.463Z,7.35
2022-08-20T05:36:41.070Z,6.20
2022-08-20T05:39:09.009Z,5.80
2022-08-20T05:41:36.503Z,5.70
2022-08-20T05:44:03.522Z,5.15
2022-08-20T05:46:31.832Z,5.32
2022-08-20T05:49:01.218Z,4.60
2022-08-20T05:51:28.921Z,4.60
2022-08-20T05:53:59.120Z,4.93
2022-08-20T05:56:30.431Z,5.05
2022-08-20T05:58:57.783Z,4.68
2022-08-20T06:01:24.445Z,5.03
2022-08-20T06:04:09.617Z,4.85
2022-08-20T06:06:45.563Z,5.78
2022-08-20T06:09:16.212Z,5.45
2022-08-20T06:11:42.926Z,5.28
2022-08-20T06:14:09.483Z,6.82
2022-08-20T06:16:37.161Z,7.75
2022-08-20T06:19:05.351Z,7.70
2022-08-20T06:21:32.138Z,8.40
2022-08-20T06:23:59.510Z,8.32
2022-08-20T06:26:30.701Z,8.45
2022-08-20T06:29:00.153Z,8.23
2022-08-20T06:31:27.463Z,8.48
2022-08-20T06:33:54.488Z,9.77
2022-08-20T06:36:21.661Z,8.27
2022-08-20T06:38:48.290Z,8.82
2022-08-20T06:41:15.152Z,10.00
2022-08-20T06:43:41.680Z,9.27
2022-08-20T06:46:08.397Z,10.23
2022-08-20T06:48:35.170Z,9.98
2022-08-20T06:51:03.620Z,11.05
2022-08-20T06:53:30.066Z,10.70
2022-08-20T06:55:58.835Z,11.60
2022-08-20T06:58:35.724Z,12.05
2022-08-20T07:01:09.165Z,12.63
2022-08-20T07:03:54.419Z,11.90
2022-08-20T07:06:23.520Z,13.10
2022-08-20T07:08:50.381Z,12.40
2022-08-20T07:11:16.834Z,12.35
2022-08-20T07:13:43.550Z,12.05
2022-08-20T07:16:10.011Z,12.10
2022-08-20T07:18:36.656Z,13.48
2022-08-20T07:21:03.768Z,11.82
2022-08-20T07:23:31.523Z,11.57
2022-08-20T07:25:58.358Z,12.15
2022-08-20T07:28:31.895Z,11.10
2022-08-20T07:31:18.049Z,11.55
2022-08-20T07:33:46.999Z,13.27
2022-08-20T07:36:18.058Z,12.07
2022-08-20T07:38:47.281Z,11.63
2022-08-20T07:41:14.804Z,12.73
2022-08-20T07:43:45.361Z,12.35
2022-08-20T07:46:13.549Z,12.48
2022-08-20T07:48:46.091Z,12.77
2022-08-20T07:51:17.744Z,11.90
2022-08-20T07:53:46.755Z,12.18
2022-08-20T07:56:16.675Z,12.23
2022-08-20T07:58:50.195Z,12.13
2022-08-20T08:01:25.939Z,11.90
2022-08-20T08:03:53.156Z,12.20
2022-08-20T08:06:29.310Z,11.82
2022-08-20T08:09:13.828Z,11.35
2022-08-20T08:11:50.414Z,10.45
2022-08-20T08:14:21.258Z,11.38
2022-08-20T08:16:48.192Z,11.15
2022-08-20T08:19:16.901Z,11.68
2022-08-20T08:21:44.303Z,11.05
2022-08-20T08:24:14.381Z,11.00
2022-08-20T08:26:43.517Z,11.38
2022-08-20T08:29:12.006Z,10.70
2022-08-20T08:31:38.470Z,11.27
2022-08-20T08:34:05.018Z,11.13
2022-08-20T08:36:31.571Z,11.43
2022-08-20T08:38:58.235Z,10.88
2022-08-20T08:41:35.719Z,11.68
2022-08-20T08:44:35.205Z,11.52
2022-08-20T08:47:29.416Z,10.50
2022-08-20T08:49:56.844Z,10.93
2022-08-20T08:52:31.738Z,11.32
2022-08-20T08:55:02.870Z,11.00
2022-08-20T08:57:30.088Z,10.43
2022-08-20T09:00:04.906Z,11.35
2022-08-20T09:02:33.567Z,10.13
2022-08-20T09:05:04.941Z,10.35
2022-08-20T09:07:33.147Z,9.95
2022-08-20T09:10:01.520Z,9.35
2022-08-20T09:12:28.272Z,9.10
2022-08-20T09:14:55.076Z,9.82
2022-08-20T09:17:23.437Z,9.40
2022-08-20T09:19:52.158Z,9.25
2022-08-20T09:22:21.691Z,10.00
2022-08-20T09:24:50.084Z,11.48
2022-08-20T09:27:16.713Z,10.50
2022-08-20T09:29:43.788Z,10.77
2022-08-20T09:32:12.076Z,9.90
2022-08-20T09:34:45.103Z,10.05
2022-08-20T09:37:12.476Z,9.52
2022-08-20T09:39:39.245Z,8.82
2022-08-20T09:42:11.182Z,8.48
2022-08-20T09:44:38.265Z,9.50
2022-08-20T09:47:04.949Z,10.15
2022-08-20T09:49:31.688Z,8.80
2022-08-20T09:52:00.412Z,9.60
2022-08-20T09:54:30.118Z,10.18
2022-08-20T09:57:03.544Z,12.55
2022-08-20T09:59:31.118Z,10.98
2022-08-20T10:01:57.763Z,10.18
2022-08-20T10:04:24.402Z,9.65
2022-08-20T10:06:51.359Z,9.55
2022-08-20T10:09:17.898Z,9.70
2022-08-20T10:11:44.528Z,8.32
2022-08-20T10:14:11.063Z,8.95
2022-08-20T10:16:37.650Z,8.90
2022-08-20T10:19:05.454Z,8.45
2022-08-20T10:21:36.683Z,8.20
2022-08-20T10:24:05.338Z,9.80
2022-08-20T10:26:31.829Z,9.25
2022-08-20T10:28:58.320Z,9.93
2022-08-20T10:31:24.889Z,11.25
2022-08-20T10:33:51.388Z,8.82
2022-08-20T10:36:18.069Z,10.48
2022-08-20T10:38:45.135Z,11.85
2022-08-20T10:41:12.179Z,14.82
2022-08-20T10:43:38.671Z,14.18
2022-08-20T10:46:05.870Z,16.10
2022-08-20T10:48:32.780Z,14.25
2022-08-20T10:50:59.746Z,15.68
2022-08-20T10:53:26.446Z,14.02
2022-08-20T10:55:54.904Z,14.85
2022-08-20T10:58:24.008Z,15.00
2022-08-20T11:00:51.296Z,15.85
2022-08-20T11:03:18.220Z,14.20
2022-08-20T11:05:45.133Z,10.27
2022-08-20T11:08:11.580Z,10.98
2022-08-20T11:10:39.067Z,11.52
2022-08-20T11:13:07.723Z,10.60
2022-08-20T11:15:38.135Z,11.55
2022-08-20T11:18:05.625Z,9.70
2022-08-20T11:20:33.081Z,9.82
2022-08-20T11:23:00.177Z,9.00
2022-08-20T11:25:27.784Z,10.00
2022-08-20T11:27:56.112Z,10.30
2022-08-20T11:30:29.399Z,8.85
2022-08-20T11:32:57.437Z,8.23
2022-08-20T11:35:42.150Z,6.88
2022-08-20T11:38:11.527Z,7.25
2022-08-20T11:40:38.756Z,6.88
2022-08-20T11:43:20.553Z,6.15
2022-08-20T11:45:50.956Z,6.60
2022-08-20T11:48:18.199Z,7.47
2022-08-20T11:50:45.724Z,7.47
2022-08-20T11:53:12.641Z,7.00
2022-08-20T11:55:40.273Z,6.53
2022-08-20T11:58:07.554Z,6.90
2022-08-20T12:00:34.487Z,6.65
2022-08-20T12:03:04.708Z,6.50
2022-08-20T12:05:31.592Z,5.18
2022-08-20T12:08:00.840Z,5.15
2022-08-20T12:10:28.155Z,4.10
2022-08-20T12:12:55.922Z,4.85
2022-08-20T12:15:24.279Z,4.10
2022-08-20T12:17:50.906Z,3.83
2022-08-20T12:20:17.554Z,3.75
2022-08-20T12:22:44.596Z,3.85
2022-08-20T12:25:12.162Z,4.05
2022-08-20T12:27:39.637Z,4.25
2022-08-20T12:30:12.495Z,4.18
2022-08-20T12:32:39.155Z,3.72
2022-08-20T12:35:07.300Z,3.42
2022-08-20T12:37:35.006Z,2.90
2022-08-20T12:40:05.512Z,3.30
2022-08-20T12:42:32.263Z,3.47
2022-08-20T12:44:59.575Z,3.72
2022-08-20T12:47:35.845Z,3.30
2022-08-20T12:50:05.161Z,3.05
2022-08-20T12:52:32.829Z,3.45
2022-08-20T12:54:59.919Z,3.45
2022-08-20T12:57:26.440Z,3.38
2022-08-20T12:59:52.950Z,3.13
2022-08-20T13:02:19.569Z,4.20
2022-08-20T13:04:46.127Z,3.60
2022-08-20T13:07:13.507Z,3.33
2022-08-20T13:09:40.531Z,3.83
2022-08-20T13:12:08.333Z,3.38
2022-08-20T13:14:35.844Z,3.50
2022-08-20T13:17:02.856Z,4.30
2022-08-20T13:19:30.462Z,3.75
2022-08-20T13:21:57.172Z,4.00
2022-08-20T13:24:23.709Z,4.13
2022-08-20T13:26:50.869Z,4.20
2022-08-20T13:29:18.635Z,5.65
2022-08-20T13:31:45.290Z,5.57
2022-08-20T13:34:12.207Z,5.22
2022-08-20T13:36:38.756Z,5.07
2022-08-20T13:39:06.753Z,4.10
2022-08-20T13:41:33.987Z,5.15
2022-08-20T13:44:00.622Z,4.25
2022-08-20T13:46:27.138Z,4.25
2022-08-20T13:48:53.879Z,5.10
2022-08-20T13:51:21.784Z,5.28
2022-08-20T13:53:48.778Z,5.60
2022-08-20T13:56:15.291Z,5.22
2022-08-20T13:58:41.867Z,6.07
2022-08-20T14:01:08.408Z,6.03
2022-08-20T14:03:36.089Z,5.72
2022-08-20T14:06:05.429Z,6.53
2022-08-20T14:08:31.970Z,7.70
2022-08-20T14:10:59.524Z,5.38
2022-08-20T14:13:27.004Z,5.35
2022-08-20T14:15:54.894Z,5.68
2022-08-20T14:18:21.866Z,5.50
2022-08-20T14:20:48.735Z,5.68
2022-08-20T14:23:15.865Z,6.63
2022-08-20T14:25:46.485Z,5.85
2022-08-20T14:28:19.853Z,6.68
2022-08-20T14:30:53.312Z,6.95
2022-08-20T14:33:20.725Z,6.18
2022-08-20T14:35:47.458Z,6.70
2022-08-20T14:38:13.937Z,5.70
2022-08-20T14:40:40.486Z,5.28
2022-08-20T14:43:06.989Z,4.80
2022-08-20T14:45:33.989Z,4.05
2022-08-20T14:48:00.540Z,4.18
2022-08-20T14:50:33.311Z,5.25
2022-08-20T14:53:00.878Z,4.93
2022-08-20T14:55:31.789Z,5.05
2022-08-20T14:57:58.744Z,5.25
2022-08-20T15:00:29.470Z,5.28
2022-08-20T15:02:56.922Z,4.75
2022-08-20T15:05:24.089Z,5.03
2022-08-20T15:07:51.915Z,5.30
2022-08-20T15:10:27.884Z,5.45
2022-08-20T15:12:55.055Z,5.18
2022-08-20T15:15:22.970Z,4.85
2022-08-20T15:17:53.750Z,4.28
2022-08-20T15:20:22.996Z,4.28
2022-08-20T15:22:50.271Z,4.20
2022-08-20T15:25:19.737Z,4.68
2022-08-20T15:27:46.930Z,4.20
2022-08-20T15:30:16.781Z,4.10
2022-08-20T15:32:43.815Z,3.70
2022-08-20T15:35:11.384Z,3.63
2022-08-20T15:37:44.608Z,3.83
2022-08-20T15:40:13.770Z,3.38
2022-08-20T15:42:43.456Z,2.92
2022-08-20T15:45:21.640Z,3.63
2022-08-20T15:47:54.768Z,3.47
2022-08-20T15:50:33.443Z,2.80
2022-08-20T15:53:35.238Z,2.78
2022-08-20T15:56:31.679Z,2.60
2022-08-20T15:59:19.957Z,3.22
2022-08-20T16:01:46.400Z,2.42
2022-08-20T16:04:24.073Z,2.47
2022-08-20T16:06:56.136Z,3.10
2022-08-20T16:09:49.961Z,3.13
2022-08-20T16:12:19.943Z,2.83
2022-08-20T16:14:53.108Z,2.63
2022-08-20T16:17:34.507Z,2.70
2022-08-20T16:20:09.693Z,2.75
2022-08-20T16:22:43.220Z,3.03
2022-08-20T16:25:12.027Z,3.10
2022-08-20T16:27:57.348Z,2.78
2022-08-20T16:30:47.192Z,2.50
2022-08-20T16:33:40.969Z,2.50
2022-08-20T16:36:14.838Z,2.72
2022-08-20T16:38:58.446Z,2.53
2022-08-20T16:41:38.716Z,2.30
2022-08-20T16:44:11.733Z,2.25
2022-08-20T16:46:46.978Z,2.45
2022-08-20T16:49:14.743Z,2.25
2022-08-20T16:51:51.916Z,2.35
2022-08-20T16:54:29.479Z,2.17
2022-08-20T16:57:01.786Z,1.85
2022-08-20T16:59:29.171Z,2.22
2022-08-20T17:02:10.309Z,2.40
2022-08-20T17:04:58.870Z,1.95
2022-08-20T17:07:46.344Z,1.90
2022-08-20T17:10:16.861Z,2.30
2022-08-20T17:12:44.462Z,1.77
2022-08-20T17:15:23.693Z,2.13
2022-08-20T17:17:50.300Z,2.00
2022-08-20T17:20:19.976Z,2.22
2022-08-20T17:22:54.516Z,2.00
2022-08-20T17:25:30.651Z,1.73
2022-08-20T17:27:57.598Z,1.95
2022-08-20T17:30:33.992Z,2.13
2022-08-20T17:33:04.525Z,2.00
2022-08-20T17:35:59.322Z,1.50
2022-08-20T17:38:40.480Z,2.30
2022-08-20T17:41:13.998Z,1.75
2022-08-20T17:43:44.630Z,2.20
2022-08-20T17:46:18.886Z,1.83
2022-08-20T17:48:48.190Z,2.00
2022-08-20T17:51:21.831Z,2.38
2022-08-20T17:54:26.626Z,1.83
2022-08-20T17:56:59.491Z,2.00
2022-08-20T18:00:01.043Z,1.70
2022-08-20T18:02:28.145Z,1.75
2022-08-20T18:04:55.770Z,1.60
2022-08-20T18:07:28.439Z,2.05
2022-08-20T18:10:01.931Z,1.70
2022-08-20T18:12:39.185Z,2.33
2022-08-20T18:15:27.262Z,2.03
2022-08-20T18:18:24.673Z,1.92
2022-08-20T18:21:22.442Z,1.50
2022-08-20T18:23:55.290Z,1.70
2022-08-20T18:26:29.143Z,2.30
2022-08-20T18:29:18.276Z,1.90
2022-08-20T18:31:53.052Z,1.77
2022-08-20T18:34:31.340Z,1.77
2022-08-20T18:37:19.618Z,1.77
2022-08-20T18:39:48.544Z,1.55
2022-08-20T18:42:30.621Z,2.15
2022-08-20T18:44:58.312Z,2.00
2022-08-20T18:47:33.820Z,1.85
2022-08-20T18:50:16.480Z,2.05
2022-08-20T18:53:22.150Z,1.90
2022-08-20T18:56:13.390Z,1.63
2022-08-20T18:58:57.676Z,1.85
2022-08-20T19:01:25.059Z,1.92
2022-08-20T19:03:54.487Z,1.80
2022-08-20T19:06:58.030Z,1.80
2022-08-20T19:09:55.861Z,1.83
2022-08-20T19:12:40.853Z,1.70
2022-08-20T19:15:10.404Z,1.70
2022-08-20T19:17:52.153Z,2.13
2022-08-20T19:20:22.041Z,1.63
2022-08-20T19:22:52.273Z,1.88
2022-08-20T19:25:26.613Z,1.90
2022-08-20T19:27:53.852Z,1.92
2022-08-20T19:30:50.625Z,2.00
2022-08-20T19:33:26.769Z,1.95
2022-08-20T19:35:56.422Z,1.90
2022-08-20T19:38:23.008Z,2.40
2022-08-20T19:40:55.541Z,1.90
2022-08-20T19:43:43.173Z,2.10
2022-08-20T19:46:10.030Z,1.98
2022-08-20T19:49:07.807Z,1.75
2022-08-20T19:52:03.414Z,2.13
2022-08-20T19:54:30.231Z,2.13
2022-08-20T19:57:05.757Z,2.60
2022-08-20T19:59:32.251Z,2.17
2022-08-20T20:02:04.890Z,2.50
2022-08-20T20:04:55.730Z,2.17
2022-08-20T20:07:38.752Z,1.92
2022-08-20T20:10:09.054Z,2.40
2022-08-20T20:12:35.859Z,2.03
2022-08-20T20:15:05.880Z,2.22
2022-08-20T20:17:35.797Z,2.30
2022-08-20T20:20:16.834Z,2.30
2022-08-20T20:22:54.788Z,2.30
2022-08-20T20:25:31.088Z,2.33
2022-08-20T20:28:08.210Z,2.35
2022-08-20T20:30:39.018Z,2.22
2022-08-20T20:33:15.113Z,2.10
2022-08-20T20:35:43.518Z,2.30
2022-08-20T20:38:22.673Z,3.13
2022-08-20T20:40:58.265Z,2.75
2022-08-20T20:43:29.742Z,2.45
2022-08-20T20:46:09.308Z,2.70
2022-08-20T20:48:47.375Z,2.53
2022-08-20T20:51:36.265Z,2.58
2022-08-20T20:54:07.464Z,3.15
2022-08-20T20:56:40.961Z,2.90
2022-08-20T20:59:08.839Z,2.53
2022-08-20T21:01:49.504Z,3.05
2022-08-20T21:04:23.539Z,3.05
2022-08-20T21:06:52.310Z,3.05
2022-08-20T21:09:19.492Z,2.40
2022-08-20T21:11:46.430Z,2.78
2022-08-20T21:14:13.054Z,3.00
2022-08-20T21:16:39.773Z,2.63
2022-08-20T21:19:08.619Z,3.45
2022-08-20T21:21:37.047Z,3.05
2022-08-20T21:24:04.648Z,3.17
2022-08-20T21:26:32.253Z,3.33
2022-08-20T21:28:58.864Z,3.28
2022-08-20T21:31:32.399Z,3.05
2022-08-20T21:33:58.852Z,3.88
2022-08-20T21:36:26.690Z,2.63
2022-08-20T21:38:53.381Z,3.20
2022-08-20T21:41:20.032Z,2.92
2022-08-20T21:43:57.075Z,2.83
2022-08-20T21:46:24.922Z,3.25
2022-08-20T21:48:51.598Z,2.90
2022-08-20T21:51:18.215Z,3.50
2022-08-20T21:53:44.689Z,3.17
2022-08-20T21:56:11.397Z,3.80
2022-08-20T21:58:39.136Z,3.70
2022-08-20T22:01:06.522Z,3.53
2022-08-20T22:03:36.894Z,2.90
2022-08-20T22:06:08.722Z,3.50
2022-08-20T22:08:35.606Z,3.70
2022-08-20T22:11:02.848Z,4.15
2022-08-20T22:13:32.605Z,4.25
2022-08-20T22:16:06.163Z,4.20
2022-08-20T22:18:33.073Z,4.07
2022-08-20T22:20:59.720Z,4.30
2022-08-20T22:23:26.324Z,3.90
2022-08-20T22:25:53.009Z,3.85
2022-08-20T22:28:20.581Z,3.90
2022-08-20T22:30:47.277Z,4.18
2022-08-20T22:33:20.083Z,3.83
2022-08-20T22:35:51.041Z,4.75
2022-08-20T22:38:19.308Z,4.45
2022-08-20T22:40:46.436Z,4.22
2022-08-20T22:43:14.090Z,4.22
2022-08-20T22:45:43.279Z,4.20
2022-08-20T22:48:12.033Z,4.45
2022-08-20T22:50:39.608Z,4.43
2022-08-20T22:53:07.661Z,4.75
2022-08-20T22:55:34.696Z,4.05
2022-08-20T22:58:02.697Z,4.70
2022-08-20T23:00:32.632Z,4.88
2022-08-20T23:03:01.171Z,5.80
2022-08-20T23:05:30.205Z,5.10
2022-08-20T23:07:59.403Z,5.63
2022-08-20T23:10:29.315Z,10.55
2022-08-20T23:12:57.250Z,6.32
2022-08-20T23:15:26.220Z,5.32
2022-08-20T23:18:00.188Z,4.45
2022-08-20T23:20:26.827Z,5.43
2022-08-20T23:22:54.687Z,5.38
2022-08-20T23:25:22.100Z,4.85
2022-08-20T23:27:53.005Z,4.63
2022-08-20T23:30:20.995Z,5.22
2022-08-20T23:32:47.766Z,5.88
2022-08-20T23:35:16.183Z,5.35
2022-08-20T23:38:01.406Z,5.80
2022-08-20T23:40:28.864Z,5.05
2022-08-20T23:42:56.887Z,5.63
2022-08-20T23:45:24.219Z,5.47
2022-08-20T23:47:51.356Z,5.60
2022-08-20T23:50:21.156Z,4.82
2022-08-20T23:52:50.932Z,4.97
2022-08-20T23:55:18.340Z,5.38
2022-08-20T23:57:45.005Z,5.63
